createdAt,value
2024-02-03T00:00:21.056Z,32.03
2024-02-03T00:01:21.043Z,32.00
2024-02-03T00:02:21.051Z,31.95
2024-02-03T00:03:21.097Z,31.97
2024-02-03T00:04:21.147Z,31.97
2024-02-03T00:05:21.134Z,32.00
2024-02-03T00:06:21.240Z,32.01
2024-02-03T00:07:21.265Z,31.97
2024-02-03T00:08:21.229Z,31.99
2024-02-03T00:09:21.298Z,31.96
2024-02-03T00:10:21.262Z,31.96
2024-02-03T00:11:21.852Z,31.97
2024-02-03T00:12:21.377Z,31.97
2024-02-03T00:13:21.358Z,31.96
2024-02-03T00:14:21.391Z,31.87
2024-02-03T00:15:21.474Z,31.97
2024-02-03T00:16:21.460Z,31.99
2024-02-03T00:17:21.470Z,31.90
2024-02-03T00:18:21.638Z,31.94
2024-02-03T00:19:21.612Z,31.91
2024-02-03T00:20:21.565Z,31.93
2024-02-03T00:21:21.591Z,31.99
2024-02-03T00:22:21.619Z,31.97
2024-02-03T00:23:21.671Z,31.97
2024-02-03T00:24:21.709Z,31.94
2024-02-03T00:25:21.697Z,31.97
2024-02-03T00:26:21.718Z,31.93
2024-02-03T00:27:21.806Z,31.90
2024-02-03T00:28:21.799Z,31.92
2024-02-03T00:29:21.838Z,31.93
2024-02-03T00:30:21.880Z,31.94
2024-02-03T00:31:21.876Z,31.93
2024-02-03T00:32:21.960Z,31.94
2024-02-03T00:33:22.117Z,31.97
2024-02-03T00:34:22.060Z,31.95
2024-02-03T00:35:22.022Z,31.93
2024-02-03T00:36:22.111Z,31.93
2024-02-03T00:37:22.079Z,31.95
2024-02-03T00:38:22.117Z,31.87
2024-02-03T00:39:22.191Z,31.94
2024-02-03T00:40:22.213Z,31.91
2024-02-03T00:41:22.243Z,31.90
2024-02-03T00:42:22.310Z,31.91
2024-02-03T00:43:22.309Z,31.91
2024-02-03T00:44:22.340Z,31.90
2024-02-03T00:45:22.395Z,31.85
2024-02-03T00:46:22.430Z,31.92
2024-02-03T00:47:22.447Z,31.94
2024-02-03T00:48:22.721Z,31.95
2024-02-03T00:49:22.673Z,31.91
2024-02-03T00:50:22.608Z,31.89
2024-02-03T00:51:22.646Z,31.90
2024-02-03T00:52:22.667Z,31.91
2024-02-03T00:53:22.706Z,31.86
2024-02-03T00:54:22.757Z,31.86
2024-02-03T00:55:22.842Z,31.91
2024-02-03T00:56:22.832Z,31.90
2024-02-03T00:57:22.938Z,31.92
2024-02-03T00:58:22.895Z,31.85
2024-02-03T00:59:22.960Z,31.86
2024-02-03T01:00:23.071Z,31.80
2024-02-03T01:01:23.061Z,31.86
2024-02-03T01:02:23.034Z,31.88
2024-02-03T01:03:23.121Z,31.88
2024-02-03T01:04:23.297Z,31.88
2024-02-03T01:05:23.183Z,31.83
2024-02-03T01:06:23.224Z,31.85
2024-02-03T01:07:23.226Z,31.79
2024-02-03T01:08:23.272Z,31.85
2024-02-03T01:09:23.326Z,31.85
2024-02-03T01:10:23.354Z,31.85
2024-02-03T01:11:23.403Z,31.82
2024-02-03T01:12:23.499Z,31.88
2024-02-03T01:13:23.520Z,31.88
2024-02-03T01:14:23.544Z,31.91
2024-02-03T01:15:23.745Z,31.85
2024-02-03T01:16:23.635Z,31.86
2024-02-03T01:17:23.666Z,31.85
2024-02-03T01:18:23.906Z,31.83
2024-02-03T01:19:23.876Z,31.86
2024-02-03T01:20:23.818Z,31.82
2024-02-03T01:21:23.924Z,31.85
2024-02-03T01:22:23.920Z,31.85
2024-02-03T01:23:23.931Z,31.84
2024-02-03T01:24:23.991Z,31.85
2024-02-03T01:25:24.012Z,31.83
2024-02-03T01:26:24.047Z,31.83
2024-02-03T01:27:24.125Z,31.83
2024-02-03T01:28:24.144Z,31.80
2024-02-03T01:29:25.399Z,31.80
2024-02-03T01:30:24.254Z,31.83
2024-02-03T01:31:24.275Z,31.86
2024-02-03T01:32:24.344Z,31.79
2024-02-03T01:33:24.472Z,31.83
2024-02-03T01:34:24.499Z,31.82
2024-02-03T01:35:24.432Z,31.79
2024-02-03T01:36:24.555Z,31.83
2024-02-03T01:37:24.517Z,31.82
2024-02-03T01:38:24.563Z,31.82
2024-02-03T01:39:24.646Z,31.85
2024-02-03T01:40:24.648Z,31.81
2024-02-03T01:41:24.739Z,31.85
2024-02-03T01:42:24.774Z,31.83
2024-02-03T01:43:24.779Z,31.81
2024-02-03T01:44:24.820Z,31.82
2024-02-03T01:45:24.935Z,31.79
2024-02-03T01:46:24.913Z,31.75
2024-02-03T01:47:24.996Z,31.70
2024-02-03T01:48:25.063Z,31.76
2024-02-03T01:49:25.117Z,31.79
2024-02-03T01:50:25.086Z,31.79
2024-02-03T01:51:25.189Z,31.80
2024-02-03T01:52:25.201Z,31.76
2024-02-03T01:53:25.241Z,31.79
2024-02-03T01:54:25.378Z,31.77
2024-02-03T01:55:25.317Z,31.79
2024-02-03T01:56:25.343Z,31.80
2024-02-03T01:57:25.442Z,31.82
2024-02-03T01:58:25.420Z,31.75
2024-02-03T01:59:25.511Z,31.80
2024-02-03T02:00:25.596Z,31.79
2024-02-03T02:01:25.614Z,31.73
2024-02-03T02:02:25.625Z,31.73
2024-02-03T02:03:25.720Z,31.72
2024-02-03T02:04:25.882Z,31.72
2024-02-03T02:05:25.772Z,31.76
2024-02-03T02:06:28.832Z,31.76
2024-02-03T02:07:26.797Z,31.76
2024-02-03T02:08:25.786Z,31.75
2024-02-03T02:09:25.830Z,31.72
2024-02-03T02:10:25.779Z,31.75
2024-02-03T02:11:25.803Z,31.79
2024-02-03T02:12:25.800Z,31.76
2024-02-03T02:13:25.785Z,31.76
2024-02-03T02:14:26.242Z,31.79
2024-02-03T02:15:26.302Z,31.70
2024-02-03T02:16:25.784Z,31.72
2024-02-03T02:17:25.773Z,31.72
2024-02-03T02:18:26.000Z,31.70
2024-02-03T02:19:25.835Z,31.72
2024-02-03T02:20:25.792Z,31.77
2024-02-03T02:21:25.868Z,31.77
2024-02-03T02:22:25.880Z,31.73
2024-02-03T02:23:25.928Z,31.79
2024-02-03T02:24:26.010Z,31.76
2024-02-03T02:25:26.027Z,31.76
2024-02-03T02:26:26.062Z,31.74
2024-02-03T02:27:26.158Z,31.76
2024-02-03T02:28:26.164Z,31.76
2024-02-03T02:29:26.210Z,31.73
2024-02-03T02:30:26.280Z,31.76
2024-02-03T02:31:26.310Z,31.73
2024-02-03T02:32:26.362Z,31.74
2024-02-03T02:33:26.539Z,31.72
2024-02-03T02:34:26.505Z,31.69
2024-02-03T02:35:26.505Z,31.75
2024-02-03T02:36:26.659Z,31.72
2024-02-03T02:37:26.612Z,31.73
2024-02-03T02:38:26.644Z,31.72
2024-02-03T02:39:26.716Z,31.73
2024-02-03T02:40:26.732Z,31.69
2024-02-03T02:41:26.788Z,31.73
2024-02-03T02:42:26.857Z,31.69
2024-02-03T02:43:26.877Z,31.72
2024-02-03T02:44:26.939Z,31.69
2024-02-03T02:45:27.051Z,31.72
2024-02-03T02:46:27.203Z,31.71
2024-02-03T02:47:27.076Z,31.70
2024-02-03T02:48:27.196Z,31.67
2024-02-03T02:49:27.264Z,31.70
2024-02-03T02:50:27.215Z,31.69
2024-02-03T02:51:27.286Z,31.70
2024-02-03T02:52:27.316Z,31.70
2024-02-03T02:53:27.365Z,31.77
2024-02-03T02:54:27.548Z,31.70
2024-02-03T02:55:27.476Z,31.69
2024-02-03T02:56:27.536Z,31.70
2024-02-03T02:57:27.649Z,31.61
2024-02-03T02:58:27.661Z,31.70
2024-02-03T02:59:27.696Z,31.76
2024-02-03T03:00:27.760Z,31.70
2024-02-03T03:01:27.859Z,31.67
2024-02-03T03:02:27.832Z,31.76
2024-02-03T03:03:27.909Z,31.67
2024-02-03T03:04:28.141Z,31.69
2024-02-03T03:05:27.943Z,31.70
2024-02-03T03:06:28.051Z,31.66
2024-02-03T03:07:28.062Z,31.66
2024-02-03T03:08:28.101Z,31.68
2024-02-03T03:09:28.160Z,31.67
2024-02-03T03:10:28.187Z,31.66
2024-02-03T03:11:28.229Z,31.64
2024-02-03T03:12:28.278Z,31.67
2024-02-03T03:13:28.370Z,31.61
2024-02-03T03:14:28.363Z,31.64
2024-02-03T03:15:28.443Z,31.64
2024-02-03T03:16:28.447Z,31.65
2024-02-03T03:17:28.527Z,31.67
2024-02-03T03:18:28.593Z,31.64
2024-02-03T03:19:28.655Z,31.64
2024-02-03T03:20:28.626Z,31.63
2024-02-03T03:21:28.721Z,31.61
2024-02-03T03:22:28.723Z,31.63
2024-02-03T03:23:28.804Z,31.66
2024-02-03T03:24:28.829Z,31.69
2024-02-03T03:25:28.851Z,31.64
2024-02-03T03:26:28.896Z,31.61
2024-02-03T03:27:28.991Z,31.64
2024-02-03T03:28:28.986Z,31.63
2024-02-03T03:29:29.050Z,31.63
2024-02-03T03:30:29.108Z,31.64
2024-02-03T03:31:29.127Z,31.61
2024-02-03T03:32:29.249Z,31.61
2024-02-03T03:33:29.379Z,31.61
2024-02-03T03:34:29.410Z,31.64
2024-02-03T03:35:29.312Z,31.63
2024-02-03T03:36:29.393Z,31.65
2024-02-03T03:37:29.433Z,31.64
2024-02-03T03:38:29.463Z,31.59
2024-02-03T03:39:29.645Z,31.62
2024-02-03T03:40:29.556Z,31.61
2024-02-03T03:41:29.614Z,31.61
2024-02-03T03:42:29.687Z,31.58
2024-02-03T03:43:29.717Z,31.59
2024-02-03T03:44:29.774Z,31.64
2024-02-03T03:45:29.832Z,31.64
2024-02-03T03:46:29.844Z,31.62
2024-02-03T03:47:29.941Z,31.59
2024-02-03T03:48:29.992Z,31.60
2024-02-03T03:49:30.093Z,31.63
2024-02-03T03:50:30.048Z,31.60
2024-02-03T03:51:30.146Z,31.62
2024-02-03T03:52:30.138Z,31.61
2024-02-03T03:53:30.177Z,31.54
2024-02-03T03:54:30.287Z,31.58
2024-02-03T03:55:30.277Z,31.62
2024-02-03T03:56:30.312Z,31.64
2024-02-03T03:57:30.393Z,31.57
2024-02-03T03:58:30.419Z,31.61
2024-02-03T03:59:30.456Z,31.62
2024-02-03T04:00:30.568Z,31.59
2024-02-03T04:01:30.603Z,31.57
2024-02-03T04:02:30.586Z,31.58
2024-02-03T04:03:30.665Z,31.55
2024-02-03T04:04:30.712Z,31.59
2024-02-03T04:05:30.761Z,31.59
2024-02-03T04:06:30.867Z,31.59
2024-02-03T04:07:30.810Z,31.61
2024-02-03T04:08:30.844Z,31.57
2024-02-03T04:09:30.900Z,31.61
2024-02-03T04:10:30.949Z,31.49
2024-02-03T04:11:31.011Z,31.55
2024-02-03T04:12:31.072Z,31.56
2024-02-03T04:13:31.130Z,31.57
2024-02-03T04:14:31.148Z,31.58
2024-02-03T04:15:31.244Z,31.55
2024-02-03T04:16:31.231Z,31.54
2024-02-03T04:17:31.289Z,31.59
2024-02-03T04:18:31.444Z,31.55
2024-02-03T04:19:31.470Z,31.58
2024-02-03T04:20:31.436Z,31.55
2024-02-03T04:21:31.505Z,31.61
2024-02-03T04:22:31.510Z,31.55
2024-02-03T04:23:31.555Z,31.56
2024-02-03T04:24:31.652Z,31.62
2024-02-03T04:25:31.677Z,31.56
2024-02-03T04:26:31.705Z,31.54
2024-02-03T04:27:31.783Z,31.58
2024-02-03T04:28:31.800Z,31.55
2024-02-03T04:29:31.855Z,31.52
2024-02-03T04:30:31.971Z,31.55
2024-02-03T04:31:31.957Z,31.58
2024-02-03T04:32:32.049Z,31.57
2024-02-03T04:33:32.260Z,31.55
2024-02-03T04:34:32.259Z,31.56
2024-02-03T04:35:32.319Z,31.51
2024-02-03T04:36:32.236Z,31.53
2024-02-03T04:37:32.328Z,31.53
2024-02-03T04:38:32.369Z,31.52
2024-02-03T04:39:32.421Z,31.58
2024-02-03T04:40:32.549Z,31.56
2024-02-03T04:41:32.622Z,31.58
2024-02-03T04:42:32.540Z,31.55
2024-02-03T04:43:39.829Z,31.62
2024-02-03T04:44:39.825Z,31.55
2024-02-03T04:45:39.865Z,31.56
2024-02-03T04:46:39.831Z,31.53
2024-02-03T04:47:39.920Z,31.59
2024-02-03T04:48:40.041Z,31.55
2024-02-03T04:49:39.878Z,31.52
2024-02-03T04:50:39.835Z,31.53
2024-02-03T04:51:39.851Z,31.49
2024-02-03T04:52:39.820Z,31.56
2024-02-03T04:53:39.829Z,31.53
2024-02-03T04:54:39.861Z,31.52
2024-02-03T04:55:39.825Z,31.52
2024-02-03T04:56:39.840Z,31.48
2024-02-03T04:57:39.952Z,31.48
2024-02-03T04:58:39.834Z,31.53
2024-02-03T04:59:39.846Z,31.49
2024-02-03T05:00:39.904Z,31.49
2024-02-03T05:01:39.875Z,31.50
2024-02-03T05:02:39.848Z,31.49
2024-02-03T05:03:39.939Z,31.52
2024-02-03T05:04:39.866Z,31.52
2024-02-03T05:05:39.892Z,31.50
2024-02-03T05:06:40.045Z,31.50
2024-02-03T05:07:39.931Z,31.50
2024-02-03T05:08:39.987Z,31.52
2024-02-03T05:09:40.128Z,31.52
2024-02-03T05:10:40.092Z,31.49
2024-02-03T05:11:40.156Z,31.48
2024-02-03T05:12:40.268Z,31.50
2024-02-03T05:13:40.299Z,31.50
2024-02-03T05:14:40.363Z,31.49
2024-02-03T05:15:40.494Z,31.48
2024-02-03T05:16:40.504Z,31.46
2024-02-03T05:17:40.610Z,31.48
2024-02-03T05:18:40.702Z,31.48
2024-02-03T05:19:40.767Z,31.50
2024-02-03T05:20:40.729Z,31.49
2024-02-03T05:21:40.850Z,31.49
2024-02-03T05:22:40.853Z,31.49
2024-02-03T05:23:40.913Z,31.46
2024-02-03T05:24:40.994Z,31.46
2024-02-03T05:25:41.026Z,31.45
2024-02-03T05:26:41.103Z,31.46
2024-02-03T05:27:41.160Z,31.48
2024-02-03T05:28:41.197Z,31.52
2024-02-03T05:29:41.260Z,31.46
2024-02-03T05:30:41.350Z,31.44
2024-02-03T05:31:41.454Z,31.44
2024-02-03T05:32:41.449Z,31.50
2024-02-03T05:33:41.565Z,31.46
2024-02-03T05:34:41.702Z,31.46
2024-02-03T05:35:41.619Z,31.43
2024-02-03T05:36:41.770Z,31.49
2024-02-03T05:37:41.746Z,31.46
2024-02-03T05:38:41.822Z,31.48
2024-02-03T05:39:42.010Z,31.47
2024-02-03T05:40:41.928Z,31.46
2024-02-03T05:41:41.985Z,31.47
2024-02-03T05:42:42.044Z,31.43
2024-02-03T05:43:42.104Z,31.41
2024-02-03T05:44:42.160Z,31.48
2024-02-03T05:45:42.263Z,31.49
2024-02-03T05:46:42.251Z,31.40
2024-02-03T05:47:42.410Z,31.49
2024-02-03T05:48:42.504Z,31.47
2024-02-03T05:49:42.571Z,31.47
2024-02-03T05:50:42.488Z,31.44
2024-02-03T05:51:42.643Z,31.47
2024-02-03T05:52:42.603Z,31.39
2024-02-03T05:53:42.657Z,31.43
2024-02-03T05:54:42.756Z,31.41
2024-02-03T05:55:42.789Z,31.45
2024-02-03T05:56:42.836Z,31.44
2024-02-03T05:57:42.910Z,31.44
2024-02-03T05:58:42.960Z,31.43
2024-02-03T05:59:48.633Z,31.47
2024-02-03T06:00:44.085Z,31.43
2024-02-03T06:01:43.041Z,31.47
2024-02-03T06:02:43.001Z,31.43
2024-02-03T06:03:43.055Z,31.44
2024-02-03T06:04:43.040Z,31.44
2024-02-03T06:05:58.432Z,31.41
2024-02-03T06:06:44.131Z,31.41
2024-02-03T06:07:43.122Z,31.47
2024-02-03T06:08:43.027Z,31.41
2024-02-03T06:09:43.060Z,31.40
2024-02-03T06:10:43.059Z,31.37
2024-02-03T06:11:43.042Z,31.40
2024-02-03T06:12:43.108Z,31.40
2024-02-03T06:13:43.039Z,31.37
2024-02-03T06:14:43.056Z,31.38
2024-02-03T06:15:43.071Z,31.40
2024-02-03T06:16:43.088Z,31.37
2024-02-03T06:17:43.175Z,31.43
2024-02-03T06:18:43.304Z,31.37
2024-02-03T06:19:44.361Z,31.43
2024-02-03T06:20:43.364Z,31.39
2024-02-03T06:21:43.473Z,31.43
2024-02-03T06:22:43.492Z,31.37
2024-02-03T06:23:43.530Z,31.43
2024-02-03T06:24:43.614Z,31.38
2024-02-03T06:25:43.651Z,31.37
2024-02-03T06:26:43.771Z,31.37
2024-02-03T06:27:43.912Z,31.35
2024-02-03T06:28:43.834Z,31.40
2024-02-03T06:29:44.005Z,31.41
2024-02-03T06:30:44.034Z,31.44
2024-02-03T06:31:44.031Z,31.44
2024-02-03T06:32:44.181Z,31.38
2024-02-03T06:33:44.265Z,31.40
2024-02-03T06:34:44.299Z,31.35
2024-02-03T06:35:44.283Z,31.41
2024-02-03T06:36:44.358Z,31.34
2024-02-03T06:37:44.447Z,31.37
2024-02-03T06:38:44.478Z,31.35
2024-02-03T06:39:44.567Z,31.35
2024-02-03T06:40:44.647Z,31.32
2024-02-03T06:41:44.666Z,31.34
2024-02-03T06:42:44.776Z,31.37
2024-02-03T06:43:44.799Z,31.38
2024-02-03T06:44:47.007Z,31.38
2024-02-03T06:45:44.982Z,31.34
2024-02-03T06:46:44.990Z,31.38
2024-02-03T06:47:45.048Z,31.39
2024-02-03T06:48:45.231Z,31.39
2024-02-03T06:49:45.274Z,31.34
2024-02-03T06:50:45.241Z,31.37
2024-02-03T06:51:45.348Z,31.41
2024-02-03T06:52:45.383Z,31.32
2024-02-03T06:53:45.457Z,31.31
2024-02-03T06:54:45.554Z,31.34
2024-02-03T06:55:45.592Z,31.35
2024-02-03T06:56:45.642Z,31.35
2024-02-03T06:57:45.781Z,31.35
2024-02-03T06:58:45.781Z,31.32
2024-02-03T06:59:45.845Z,31.35
2024-02-03T07:00:45.944Z,31.30
2024-02-03T07:01:46.029Z,31.34
2024-02-03T07:02:46.053Z,31.31
2024-02-03T07:03:46.157Z,31.32
2024-02-03T07:04:46.220Z,31.34
2024-02-03T07:05:46.310Z,31.34
2024-02-03T07:06:46.474Z,31.29
2024-02-03T07:07:46.394Z,31.35
2024-02-03T07:08:48.269Z,31.34
2024-02-03T07:09:46.460Z,31.30
2024-02-03T07:10:46.455Z,31.31
2024-02-03T07:11:56.767Z,31.32
2024-02-03T07:12:47.524Z,31.29
2024-02-03T07:13:46.491Z,31.31
2024-02-03T07:14:46.473Z,31.31
2024-02-03T07:15:46.492Z,31.34
2024-02-03T07:16:46.472Z,31.30
2024-02-03T07:17:46.519Z,31.28
2024-02-03T07:18:46.627Z,31.32
2024-02-03T07:19:46.568Z,31.25
2024-02-03T07:20:46.519Z,31.27
2024-02-03T07:21:46.512Z,31.25
2024-02-03T07:22:46.580Z,31.34
2024-02-03T07:23:46.630Z,31.26
2024-02-03T07:24:46.771Z,31.14
2024-02-03T07:25:46.779Z,31.10
2024-02-03T07:26:46.835Z,31.07
2024-02-03T07:27:46.990Z,31.05
2024-02-03T07:28:46.931Z,30.97
2024-02-03T07:29:47.001Z,30.91
2024-02-03T07:30:47.083Z,30.85
2024-02-03T07:31:47.129Z,30.91
2024-02-03T07:32:47.194Z,30.91
2024-02-03T07:33:47.316Z,31.01
2024-02-03T07:34:47.492Z,30.99
2024-02-03T07:35:47.481Z,31.02
2024-02-03T07:36:47.474Z,31.05
2024-02-03T07:37:47.495Z,31.08
2024-02-03T07:38:47.543Z,31.06
2024-02-03T07:39:47.689Z,31.12
2024-02-03T07:40:47.666Z,31.06
2024-02-03T07:41:47.724Z,31.11
2024-02-03T07:42:47.844Z,31.03
2024-02-03T07:43:47.858Z,30.98
2024-02-03T07:44:47.915Z,30.93
2024-02-03T07:45:48.004Z,30.84
2024-02-03T07:46:48.016Z,30.79
2024-02-03T07:47:48.147Z,30.69
2024-02-03T07:48:48.267Z,30.71
2024-02-03T07:49:48.302Z,30.70
2024-02-03T07:50:48.183Z,30.65
2024-02-03T07:51:48.310Z,30.63
2024-02-03T07:52:49.019Z,30.63
2024-02-03T07:53:48.348Z,30.54
2024-02-03T07:54:48.384Z,30.52
2024-02-03T07:55:48.372Z,30.46
2024-02-03T07:56:48.406Z,30.51
2024-02-03T07:57:51.178Z,30.45
2024-02-03T07:58:48.437Z,30.43
2024-02-03T07:59:48.434Z,30.41
2024-02-03T08:00:48.484Z,30.41
2024-02-03T08:01:48.531Z,30.44
2024-02-03T08:02:48.448Z,30.34
2024-02-03T08:03:48.549Z,30.32
2024-02-03T08:04:48.492Z,30.30
2024-02-03T08:05:48.496Z,30.36
2024-02-03T08:06:48.556Z,30.23
2024-02-03T08:07:48.480Z,30.26
2024-02-03T08:08:48.499Z,30.23
2024-02-03T08:09:48.501Z,30.20
2024-02-03T08:10:48.444Z,30.23
2024-02-03T08:11:48.472Z,30.18
2024-02-03T08:12:48.527Z,30.15
2024-02-03T08:13:48.536Z,30.12
2024-02-03T08:14:48.470Z,30.09
2024-02-03T08:15:48.573Z,30.04
2024-02-03T08:16:48.500Z,30.02
2024-02-03T08:17:48.517Z,30.03
2024-02-03T08:18:48.534Z,30.03
2024-02-03T08:19:48.531Z,29.94
2024-02-03T08:20:48.472Z,29.94
2024-02-03T08:21:48.550Z,29.97
2024-02-03T08:22:48.468Z,29.92
2024-02-03T08:23:48.467Z,29.86
2024-02-03T08:24:48.490Z,29.84
2024-02-03T08:25:48.467Z,29.87
2024-02-03T08:26:48.484Z,29.81
2024-02-03T08:27:48.493Z,29.80
2024-02-03T08:28:48.479Z,29.71
2024-02-03T08:29:48.482Z,29.76
2024-02-03T08:30:48.588Z,29.75
2024-02-03T08:31:48.540Z,29.73
2024-02-03T08:32:48.643Z,29.63
2024-02-03T08:33:48.580Z,29.62
2024-02-03T08:35:48.664Z,29.62
2024-02-03T08:36:48.596Z,29.59
2024-02-03T08:37:48.539Z,29.54
2024-02-03T08:38:48.493Z,29.53
2024-02-03T08:39:48.573Z,29.53
2024-02-03T08:40:48.476Z,29.51
2024-02-03T08:41:48.500Z,29.50
2024-02-03T08:42:48.546Z,29.49
2024-02-03T08:43:48.483Z,29.43
2024-02-03T08:44:48.500Z,29.41
2024-02-03T08:45:48.591Z,29.39
2024-02-03T08:46:48.488Z,29.39
2024-02-03T08:47:48.607Z,29.40
2024-02-03T08:48:48.575Z,29.30
2024-02-03T08:49:48.592Z,29.32
2024-02-03T08:50:48.499Z,29.33
2024-02-03T08:51:48.596Z,29.28
2024-02-03T08:52:48.512Z,29.22
2024-02-03T08:53:48.530Z,29.25
2024-02-03T08:54:48.581Z,29.23
2024-02-03T08:55:48.503Z,29.22
2024-02-03T08:56:48.557Z,29.15
2024-02-03T08:57:48.517Z,29.13
2024-02-03T08:58:48.510Z,29.08
2024-02-03T08:59:48.534Z,29.00
2024-02-03T09:00:48.552Z,28.88
2024-02-03T09:01:48.564Z,28.82
2024-02-03T09:02:48.543Z,28.56
2024-02-03T09:03:48.892Z,28.34
2024-02-03T09:04:48.589Z,28.09
2024-02-03T09:05:48.586Z,27.84
2024-02-03T09:06:48.520Z,27.69
2024-02-03T09:07:48.593Z,27.54
2024-02-03T09:08:48.530Z,27.46
2024-02-03T09:09:48.619Z,27.32
2024-02-03T09:10:48.520Z,27.22
2024-02-03T09:11:48.522Z,27.16
2024-02-03T09:12:48.610Z,27.17
2024-02-03T09:13:48.526Z,27.14
2024-02-03T09:14:48.534Z,27.10
2024-02-03T09:15:48.533Z,27.10
2024-02-03T09:16:48.538Z,27.09
2024-02-03T09:17:48.599Z,27.09
2024-02-03T09:18:48.662Z,27.09
2024-02-03T09:19:48.715Z,27.16
2024-02-03T09:20:48.574Z,27.11
2024-02-03T09:21:48.565Z,27.10
2024-02-03T09:22:48.559Z,27.13
2024-02-03T09:23:48.544Z,27.10
2024-02-03T09:24:48.648Z,27.17
2024-02-03T09:25:48.549Z,27.18
2024-02-03T09:26:48.555Z,27.30
2024-02-03T09:27:48.653Z,27.38
2024-02-03T09:28:48.557Z,27.41
2024-02-03T09:29:48.581Z,27.45
2024-02-03T09:30:48.567Z,27.48
2024-02-03T09:31:48.603Z,27.45
2024-02-03T09:32:48.640Z,27.41
2024-02-03T09:33:48.712Z,27.38
2024-02-03T09:34:48.666Z,27.36
2024-02-03T09:35:48.592Z,27.33
2024-02-03T09:37:51.797Z,27.12
2024-02-03T09:38:48.643Z,27.03
2024-02-03T09:39:48.756Z,26.99
2024-02-03T09:40:48.662Z,26.88
2024-02-03T09:41:48.645Z,26.77
2024-02-03T09:42:48.685Z,26.68
2024-02-03T09:43:50.331Z,26.66
2024-02-03T09:44:48.645Z,26.60
2024-02-03T09:45:48.683Z,26.66
2024-02-03T09:46:48.642Z,26.59
2024-02-03T09:47:48.739Z,26.59
2024-02-03T09:48:48.787Z,26.60
2024-02-03T09:49:48.736Z,26.66
2024-02-03T09:50:48.658Z,26.63
2024-02-03T09:51:48.739Z,26.60
2024-02-03T09:52:48.663Z,26.60
2024-02-03T09:53:48.687Z,26.52
2024-02-03T09:54:48.802Z,26.54
2024-02-03T09:55:48.694Z,26.55
2024-02-03T09:56:48.668Z,26.58
2024-02-03T09:57:48.944Z,26.62
2024-02-03T09:58:48.699Z,26.62
2024-02-03T09:59:48.671Z,26.72
2024-02-03T10:00:48.775Z,26.75
2024-02-03T10:01:48.668Z,26.80
2024-02-03T10:02:48.680Z,26.87
2024-02-03T10:03:48.697Z,26.93
2024-02-03T10:04:48.701Z,26.93
2024-02-03T10:05:48.746Z,27.00
2024-02-03T10:06:48.880Z,26.95
2024-02-03T10:07:48.715Z,26.94
2024-02-03T10:08:48.744Z,26.90
2024-02-03T10:11:48.841Z,26.73
2024-02-03T10:12:48.809Z,26.67
2024-02-03T10:13:48.790Z,26.66
2024-02-03T10:14:48.792Z,26.66
2024-02-03T10:15:48.913Z,26.63
2024-02-03T10:16:48.789Z,26.62
2024-02-03T10:17:48.831Z,26.57
2024-02-03T10:18:48.947Z,26.55
2024-02-03T10:19:48.846Z,26.61
2024-02-03T10:20:48.805Z,26.54
2024-02-03T10:21:48.828Z,26.50
2024-02-03T10:22:48.823Z,26.51
2024-02-03T10:23:48.809Z,26.48
2024-02-03T10:24:48.862Z,26.46
2024-02-03T10:25:48.816Z,26.49
2024-02-03T10:26:48.801Z,26.50
2024-02-03T10:27:48.876Z,26.46
2024-02-03T10:28:48.818Z,26.42
2024-02-03T10:29:48.816Z,26.45
2024-02-03T10:30:48.922Z,26.40
2024-02-03T10:31:48.868Z,26.43
2024-02-03T10:32:48.919Z,26.39
2024-02-03T10:33:48.972Z,26.46
2024-02-03T10:34:48.840Z,26.46
2024-02-03T10:35:48.837Z,26.52
2024-02-03T10:36:50.526Z,26.55
2024-02-03T10:37:48.823Z,26.60
2024-02-03T10:38:48.846Z,26.60
2024-02-03T10:39:48.966Z,26.61
2024-02-03T10:40:48.834Z,26.66
2024-02-03T10:41:48.825Z,26.70
2024-02-03T10:42:48.942Z,26.66
2024-02-03T10:43:48.916Z,26.65
2024-02-03T10:44:48.832Z,26.58
2024-02-03T10:45:49.602Z,26.50
2024-02-03T10:46:48.848Z,26.36
2024-02-03T10:47:48.952Z,26.25
2024-02-03T10:48:49.049Z,26.17
2024-02-03T10:49:49.046Z,26.08
2024-02-03T10:50:48.850Z,26.00
2024-02-03T10:51:48.937Z,25.99
2024-02-03T10:52:48.898Z,25.88
2024-02-03T10:53:48.971Z,25.81
2024-02-03T10:54:49.089Z,25.84
2024-02-03T10:55:49.048Z,25.74
2024-02-03T10:56:49.096Z,25.70
2024-02-03T10:57:49.348Z,25.69
2024-02-03T10:58:49.187Z,25.63
2024-02-03T10:59:49.218Z,25.66
2024-02-03T11:00:49.342Z,25.64
2024-02-03T11:01:49.315Z,25.65
2024-02-03T11:02:49.360Z,25.56
2024-02-03T11:03:49.494Z,25.53
2024-02-03T11:04:49.439Z,25.51
2024-02-03T11:05:49.524Z,25.48
2024-02-03T11:06:49.711Z,25.48
2024-02-03T11:07:49.574Z,25.48
2024-02-03T11:08:49.589Z,25.43
2024-02-03T11:09:49.677Z,25.41
2024-02-03T11:10:49.700Z,25.48
2024-02-03T11:11:49.703Z,25.44
2024-02-03T11:12:49.741Z,25.53
2024-02-03T11:13:49.740Z,25.49
2024-02-03T11:14:49.793Z,25.57
2024-02-03T11:15:49.826Z,25.58
2024-02-03T11:16:49.817Z,25.65
2024-02-03T11:17:49.918Z,25.72
2024-02-03T11:18:49.967Z,25.92
2024-02-03T11:19:50.261Z,25.98
2024-02-03T11:20:49.974Z,26.16
2024-02-03T11:21:50.135Z,26.29
2024-02-03T11:22:50.109Z,26.35
2024-02-03T11:23:50.155Z,26.48
2024-02-03T11:24:50.227Z,26.56
2024-02-03T11:25:50.283Z,26.66
2024-02-03T11:26:50.333Z,26.74
2024-02-03T11:27:50.480Z,26.79
2024-02-03T11:28:50.453Z,26.88
2024-02-03T11:29:50.501Z,26.95
2024-02-03T11:30:50.639Z,27.03
2024-02-03T11:31:50.711Z,27.12
2024-02-03T11:32:50.644Z,27.19
2024-02-03T11:33:50.732Z,27.22
2024-02-03T11:34:50.754Z,27.27
2024-02-03T11:35:50.689Z,27.28
2024-02-03T11:36:50.762Z,27.34
2024-02-03T11:37:50.718Z,27.38
2024-02-03T11:38:50.719Z,27.43
2024-02-03T11:39:50.829Z,27.53
2024-02-03T11:40:50.704Z,27.57
2024-02-03T11:41:50.729Z,27.57
2024-02-03T11:42:50.791Z,27.61
2024-02-03T11:43:50.714Z,27.66
2024-02-03T11:44:50.725Z,27.71
2024-02-03T11:45:50.834Z,27.70
2024-02-03T11:46:50.784Z,27.70
2024-02-03T11:47:50.782Z,27.76
2024-02-03T11:48:50.921Z,27.74
2024-02-03T11:49:50.903Z,27.83
2024-02-03T11:50:50.794Z,27.87
2024-02-03T11:51:50.891Z,27.82
2024-02-03T11:52:50.815Z,27.90
2024-02-03T11:53:50.798Z,27.90
2024-02-03T11:54:50.851Z,27.88
2024-02-03T11:55:50.818Z,27.94
2024-02-03T11:56:50.830Z,27.98
2024-02-03T11:57:50.875Z,27.98
2024-02-03T11:58:50.897Z,27.98
2024-02-03T11:59:50.866Z,27.98
2024-02-03T12:00:51.003Z,28.02
2024-02-03T12:01:50.883Z,28.02
2024-02-03T12:02:50.888Z,28.02
2024-02-03T12:03:50.934Z,28.07
2024-02-03T12:04:50.948Z,28.07
2024-02-03T12:05:50.985Z,28.09
2024-02-03T12:06:50.970Z,28.12
2024-02-03T12:07:50.991Z,28.10
2024-02-03T12:08:50.967Z,28.10
2024-02-03T12:09:50.993Z,28.13
2024-02-03T12:10:50.999Z,28.19
2024-02-03T12:11:50.999Z,28.20
2024-02-03T12:12:51.062Z,28.26
2024-02-03T12:13:51.033Z,28.19
2024-02-03T12:14:51.057Z,28.20
2024-02-03T12:15:51.132Z,28.23
2024-02-03T12:16:51.108Z,28.23
2024-02-03T12:17:51.241Z,28.23
2024-02-03T12:18:51.264Z,28.30
2024-02-03T12:19:51.334Z,28.30
2024-02-03T12:20:51.170Z,28.31
2024-02-03T12:21:51.255Z,28.27
2024-02-03T12:22:51.241Z,28.27
2024-02-03T12:23:51.251Z,28.36
2024-02-03T12:24:51.384Z,28.39
2024-02-03T12:25:51.311Z,28.40
2024-02-03T12:26:51.355Z,28.40
2024-02-03T12:27:51.482Z,28.43
2024-02-03T12:28:51.495Z,28.46
2024-02-03T12:29:51.432Z,28.50
2024-02-03T12:30:51.545Z,28.47
2024-02-03T12:31:51.539Z,28.44
2024-02-03T12:32:51.584Z,28.50
2024-02-03T12:33:51.652Z,28.50
2024-02-03T12:34:51.765Z,28.53
2024-02-03T12:35:51.657Z,28.48
2024-02-03T12:36:51.727Z,28.57
2024-02-03T12:37:51.754Z,28.51
2024-02-03T12:38:51.765Z,28.57
2024-02-03T12:39:51.817Z,28.61
2024-02-03T12:40:51.848Z,28.55
2024-02-03T12:41:51.886Z,28.62
2024-02-03T12:42:51.944Z,28.62
2024-02-03T12:43:51.932Z,28.59
2024-02-03T12:44:51.987Z,28.62
2024-02-03T12:45:52.053Z,28.62
2024-02-03T12:46:52.026Z,28.65
2024-02-03T12:47:52.050Z,28.71
2024-02-03T12:48:52.322Z,28.71
2024-02-03T12:49:52.276Z,28.72
2024-02-03T12:50:52.148Z,28.74
2024-02-03T12:51:52.280Z,28.78
2024-02-03T12:52:52.244Z,28.76
2024-02-03T12:53:52.270Z,28.76
2024-02-03T12:54:52.378Z,28.79
2024-02-03T12:55:52.333Z,28.78
2024-02-03T12:56:52.375Z,28.80